Letadlo (typ, imatrikulační znak): _________________/__________________
Meno pilota: ___________________________________
Podpis pilota: ___________________________________

Předpověď na dnes

 LETOVA PREDPOVED PRO CR/OBLASTNI PREDPOVED PRO LKAA
 VRSTVA OD ZEME DO FL450
 PLATNOST  210400/211300 UTC.
 (VYSKOVE UDAJE JSOU UVEDENY VE STOVKACH FT MSL)
 
 SITUACE: ZPOCATKU BUDEME POD VLIVEM TLAKOVE NIZE POSTUPUJICI
       Z MADARSKA A CHORVATSKA DALE K JIHOVYCHODU. V PRUBEHU
       DOPOLEDNE SE OD JIHOZAPADU ZACNE ROZSIROVAT NEVYRAZNY
       HREBEN VYSSIHO TLAKU VZDUCHU.
 VYSKOVY VITR A TEPLOTA (DEG,KT;DEG C)
 USEK TRATI:    CECHY        MORAVA A SLEZSKO
 TROPO          FL200  -40   FL290  -52
 FL450          320/75 -57   300/65 -56
 FL390          320/85 -55   310/60 -53
 FL340          330/90 -54   310/55 -53
 FL300          330/90 -50   290/50 -52
 FL240          320/70 -39   280/30 -46
 FL180          300/30 -36   290/25 -34
 FL100          310/10 -16   300/10 -15
 FL050          010/10 -07   060/10 -06
 PRIZEMNI VITR (DEG,KT): ZPOCATKU SLABY DO 8 SEVEROVYCHODNICH SMERU,
          BEHEM DOPOLEDNE 330-030 5-15.
 OBLACNOST
 CELKOVE POKRYTI A DRUH: BKN/OVC CI, CS, AS, AC, SC, ISOL NS, LCA ST
 NEJNIZSI VRSTVA: BKN/OVC
          BASE NS 040-050 SC 030-040, LCA 020-030, LCA BKN ST 015-020
          TOP  SC 070-080, NS 080-090
 DALSI VRSTVA: BKN/OVC AS, BASE 080-100.
 DOHLEDNOST: NAD 10KM, ZPOCATKU NA JIZNI MORAVE MISTY 3-5KM.
          VE SNEZENI CETNE 3-5KM, MISTY 1-3KM.
 STAV POCASI: ZATAZENO SE SNEZENIM, NA SEVERU SRAZKY OBCASNE.
 VYSKA IZOTERMY 0 DEG C: ZEM-015
 TURBULENCE: MIRNA 210/350
 NAMRAZA: SLABA AZ MIRNA 020/090
 TLAK QNH (HPA): 0998-1003, SLABY, OD ZAPADU MIRNY VZESTUP.
 

GAMET - Všeobecní letecká meteo zpráva

 LKAA GAMET VALID 210400/211000 LKPW-
 PRAHA FIR BLW FL100
 SECN I
 SFC VIS:  04/08 SE PART 3000-5000M BR
           FM W 1000-3000M IN SN
 MT OBSC:  MT AND HILLS INC
 SIG CLD:  LCA ST 0100-0600FT AGL/2500FT AMSL
 ICE:      LCA MOD ABV 2500FT AMSL
 
 SECN II
 PSYS:  06 N47 E017 L 999HPA MOV SE WKN
 WIND/T:
               W HALF          E HALF
 2000 FT:   070 08KT/MS01   080 10KT/MS02
 5000 FT:   030 10KT/MS06   070 12KT/MS06
 10000 FT:  310 10KT/MS16   290 10KT/MS15
 CLD:      BKN/OVC AS AC ABV 8000FT AMSL
           FM W LCA NS ABV 4000-5000FT AMSL
           BKN/OVC SC 3000-4000 LCA 2500FT AMSL IN SN/7000-8000FT AMSL
 FZLVL:    SFC
 MNM QNH:  0999HPA
 VA:       NIL
 

AUP - využití vzdušního prostoru

Plan vyuzivani vzdusneho prostoru Ceske republiky
OD 21. 01. 2018 06:00 DO 22. 01. 2018 06:00
Odesilajici stanoviste: AMC Ceska republika
Datum a cas vydani: 20. 01. 2018 11:33:52
A/ Pouzitelne trate CDR 2:
P.c.TratPrvni bodPosl.bodSpodni hran.Horni hran.OdDoDopl.inf.
1.Z608ELMEKVEXILF245F66005:0005:59
B/ Uzavrene stale ATS trate a CDR 1 : N I L
C/ Prostory TSA, TRA a omezene prostory (R) spravovane AMC:
P.c.ProstorSpodni hran.Horni hran.OdDoZodp.stanovisteDopl.info
1.TRA37F095F39513:0016:00LKCVOAT
2.TRA37F095F39509:0011:00LKCVOAT
D/ Zmeny v omezeni vzdusneho prostoru (CAR) : N I L
Uvedeni 'NIL' v tomto seznamu znamena, ze omezene a nebezpecne prostory nespravovane AMC (LKR9 a LKD1 az LKD7), jsou aktivni v plnem rozsahu publikace v AIP CR.
E/ Vzdusne prostory s omezenou koordinaci (RCA) : N I L
F/ Doplnujici informace (Dalsi omezeni a navigacni vystrahy):
P.c.NOTAMSpodni hran.Horni hran.OdDoZodp.stanovisteDopl.info
1.A0023GNDF06509:0015:43 PETROVICE U SUSICEPJE
Seznam F obsahuje odkazy jen na ty navigacni vystrahy, ktere byly AMC do doby vydani AUP znamy. Informace uvedene v seznamu F nenahrazuji informace prislusnych publikaci.

METAR a TAF

Praha - Ruzyně

 METAR LKPR 21.01. 06:00 ...
METAR LKPR 210600Z 01004KT 4500 -SN BR OVC002 M02/M02 Q1004 R24/290295 R30/590591 NOSIG RMK REG QNH 1000=
 TAF LKPR 21.01. 05:00 ...
TAF LKPR 210500Z 2106/2212 03006KT 5000 -SN BR OVC003      TEMPO 2106/2114 2500 SN BR      PROB30 TEMPO 2106/2109 1400 SN BR OVC002      BECMG 2107/2109 33008KT      BECMG 2114/2117 SCT030      BECMG 2121/2200 VRB02KT 6000 NSC      TEMPO 2200/2206 3000 BR SCT006      BECMG 2206/2208 17008KT 9999 SCT040=
 WARNING LKPR 21.01. 05:11 ...
LKPR AD WRNG 1 VALID 210512/210835 SN 1 CM OBS WKN=

Praha - Kbely

 METAR LKKB 21.01. 06:00 ...
METAR LKKB 210600Z VRB02KT 2000 -SN BR SCT016 BKN025 OVC050 M02/M03 Q1004 NOSIG=
 TAF LKKB 21.01. 05:00 ...
TAF LKKB 210500Z 2106/2206 06006KT 5000 SN BKN010      TEMPO 2106/2110 2000 SN BR OVC004      PROB30 TEMPO 2106/2109 1500 SN BR      BECMG 2107/2109 33008KT      BECMG 2112/2114 9999 SCT030      TEMPO 2200/2206 4000 BR SCT010=

Karlovy Vary

 METAR LKKV 21.01. 06:00 ...
METAR LKKV 210600Z 03004KT 2500 -SN BR SCT015 BKN020 M02/M03 Q1002 R29/497091 RMK REG QNH 1000=
 TAF LKKV 21.01. 05:00 ...
TAF LKKV 210500Z 2106/2212 VRB02KT 3500 -SN BKN017      TEMPO 2106/2110 1800 SN BR OVC005      PROB30 TEMPO 2106/2108 1200 SN BR OVC003      BECMG 2114/2117 16005KT 5000 BR SCT015      BECMG 2119/2122 3000 BR SCT012      TEMPO 2122/2206 1500 BR BKN010=
 WARNING LKKV 21.01. 05:12 ...
LKKV AD WRNG 1 VALID 210514/210910 SN 2CM OBS WKN=

Plzeň - Líne

 SPECI LKLN 21.01. 06:04 ...
SPECI LKLN 210604Z AUTO VRB01KT 1800 -SN BKN004 OVC014 M00/M00 Q1004=
 METAR LKLN 21.01. 06:00 ...
METAR LKLN 210600Z AUTO VRB01KT 1600 -SN OVC004 M00/M00 Q1004=

Čáslav

 METAR LKCV 21.01. 06:00 ...
METAR LKCV 210600Z 31005KT 2000 -SN BR SCT008 OVC017 M01/M02 Q1004 NOSIG=
 TAF LKCV 21.01. 05:00 ...
TAF LKCV 210500Z 2106/2206 32006KT 4000 SN BKN020 OVC028      TEMPO 2106/2112 2000 SN BKN010 OVC015      TEMPO 2109/2113 6000 SN      BECMG 2111/2113 32010KT 9999 NSW BKN028      TEMPO 2112/2119 4000 SN BKN018 OVC022      BECMG 2200/2203 12005KT=

Pardubice

 METAR LKPD 21.01. 06:00 ...
METAR LKPD 210600Z 00000KT 6000 -SN SCT021 OVC070 M02/M02 Q1004 NOSIG=
 TAF LKPD 21.01. 05:00 ...
TAF LKPD 210500Z 2106/2206 VRB02KT 9999 BKN040      BECMG 2106/2109 33008KT      TEMPO 2106/2115 6000 SN OVC030      PROB30 TEMPO 2106/2112 2000 BKN006 OVC012      BECMG 2114/2117 VRB02KT CAVOK      TEMPO 2118/2206 BKN030=

Liberec

lklb

Ostrava - Mošnov

 SPECI LKMT 21.01. 06:22 ...
SPECI LKMT 210622Z 03005KT 1200 R22/P2000N R04/P2000N SN BR SCT003 OVC015 M01/M01 Q1003 R04/590691 RMK REG QNH 1000=
 METAR LKMT 21.01. 06:00 ...
METAR LKMT 210600Z 02006KT 2000 SN BR FEW003 OVC020 M01/M01 Q1003 R04/590691 TEMPO 1500 SN BR RMK REG QNH 1000=
 TAF LKMT 21.01. 05:00 ...
TAF LKMT 210500Z 2106/2212 01006KT 7000 OVC022      TEMPO 2106/2112 2500 SN BR OVC012      PROB30 TEMPO 2106/2112 1400 SN BKN004      BECMG 2110/2112 01010KT      PROB30 TEMPO 2112/2206 4000 -SN BKN014      TEMPO 2114/2120 36014G26KT=
 WARNING LKMT 21.01. 03:29 ...
LKMT AD WRNG 1 VALID 210335/210735 SN 2CM FCST INTSF=

Přerov

 METAR - Not available LKPO  
 TAF - Not available LKPO  

Holešov

Omlouváme se, ale tato informace není momentálně k dispozici.

Brno - Tuřany

 SPECI LKTB 21.01. 06:21 ...
SPECI LKTB 210621Z 04003KT 5000 -SN BR SCT018 OVC032 00/M01 Q1003 R27/591091 RMK REG QNH 1000=
 METAR LKTB 21.01. 06:00 ...
METAR LKTB 210600Z 04003KT 3500 -SN BR OVC025 00/M00 Q1002 R27/591091 NOSIG RMK REG QNH 1000=
 TAF LKTB 21.01. 05:00 ...
TAF LKTB 210500Z 2106/2212 07010KT 8000 BKN015      TEMPO 2106/2112 2500 SN BR BKN010      BECMG 2108/2110 34008KT      BECMG 2112/2115 9999 SCT040      BECMG 2205/2206 VRB02KT=
 WARNING LKTB 21.01. 05:57 ...
LKTB AD WRNG 2 VALID 210620/210920 SN 2CM FCST NC=

Náměšť nad Oslavou

 METAR LKNA 21.01. 06:00 ...
METAR LKNA 210600Z 35005KT 1500 -SN BR OVC010 M01/M02 Q1001 NOSIG=
 TAF LKNA 21.01. 05:00 AMD
TAF AMD LKNA 210500Z 2106/2206 01010KT 2000 BR OVC003      TEMPO 2106/2109 36003KT 1000 FZRA BR OVC002      TEMPO 2109/2112 1500 SN BR BKN004 OVC008      BECMG 2108/2110 5000 BR BKN015      BECMG 2112/2114 NSW SCT025=

NOTAMy

Omlouváme se, ale tato informace není momentálně k dispozici.